createdAt,value
2019-03-24T00:00:41.033Z,1006.40
2019-03-24T00:01:41.678Z,1006.37
2019-03-24T00:02:41.052Z,1006.39
2019-03-24T00:03:41.050Z,1006.37
2019-03-24T00:04:41.056Z,1006.43
2019-03-24T00:05:41.058Z,1006.34
2019-03-24T00:06:41.069Z,1006.42
2019-03-24T00:07:41.068Z,1006.43
2019-03-24T00:08:41.075Z,1006.41
2019-03-24T00:09:41.077Z,1006.40
2019-03-24T00:10:41.085Z,1006.38
2019-03-24T00:11:41.090Z,1006.38
2019-03-24T00:12:41.094Z,1006.37
2019-03-24T00:13:41.098Z,1006.38
2019-03-24T00:14:41.104Z,1006.38
2019-03-24T00:15:41.110Z,1006.38
2019-03-24T00:16:41.114Z,1006.41
2019-03-24T00:17:41.123Z,1006.41
2019-03-24T00:18:41.123Z,1006.38
2019-03-24T00:19:41.129Z,1006.39
2019-03-24T00:20:41.136Z,1006.37
2019-03-24T00:21:41.139Z,1006.40
2019-03-24T00:22:41.146Z,1006.38
2019-03-24T00:23:41.149Z,1006.35
2019-03-24T00:24:41.154Z,1006.36
2019-03-24T00:25:41.161Z,1006.37
2019-03-24T00:26:41.166Z,1006.39
2019-03-24T00:27:41.176Z,1006.41
2019-03-24T00:28:41.175Z,1006.41
2019-03-24T00:29:41.179Z,1006.37
2019-03-24T00:30:41.186Z,1006.38
2019-03-24T00:31:41.189Z,1006.37
2019-03-24T00:32:41.195Z,1006.41
2019-03-24T00:33:41.222Z,1006.42
2019-03-24T00:34:41.206Z,1006.38
2019-03-24T00:35:41.209Z,1006.36
2019-03-24T00:36:41.215Z,1006.39
2019-03-24T00:37:41.220Z,1006.37
2019-03-24T00:38:41.228Z,1006.33
2019-03-24T00:39:41.231Z,1006.37
2019-03-24T00:40:41.236Z,1006.34
2019-03-24T00:41:41.243Z,1006.32
2019-03-24T00:42:41.246Z,1006.30
2019-03-24T00:43:41.253Z,1006.25
2019-03-24T00:44:41.256Z,1006.26
2019-03-24T00:45:41.261Z,1006.26
2019-03-24T00:46:41.266Z,1006.25
2019-03-24T00:47:41.274Z,1006.25
2019-03-24T00:48:41.276Z,1006.25
2019-03-24T00:49:41.285Z,1006.28
2019-03-24T00:50:41.290Z,1006.24
2019-03-24T00:51:41.293Z,1006.25
2019-03-24T00:52:41.300Z,1006.27
2019-03-24T00:53:41.305Z,1006.25
2019-03-24T00:54:41.307Z,1006.28
2019-03-24T00:55:41.313Z,1006.25
2019-03-24T00:56:41.318Z,1006.25
2019-03-24T00:57:41.482Z,1006.26
2019-03-24T00:58:41.328Z,1006.24
2019-03-24T00:59:41.334Z,1006.27
2019-03-24T01:00:41.337Z,1006.23
2019-03-24T01:01:41.344Z,1006.21
2019-03-24T01:02:41.347Z,1006.21
2019-03-24T01:03:41.354Z,1006.20
2019-03-24T01:04:41.358Z,1006.20
2019-03-24T01:05:41.362Z,1006.18
2019-03-24T01:06:41.369Z,1006.19
2019-03-24T01:07:41.371Z,1006.17
2019-03-24T01:08:41.379Z,1006.12
2019-03-24T01:09:41.385Z,1006.12
2019-03-24T01:10:41.388Z,1006.12
2019-03-24T01:11:41.391Z,1006.11
2019-03-24T01:12:41.397Z,1006.13
2019-03-24T01:13:41.405Z,1006.14
2019-03-24T01:14:41.406Z,1006.12
2019-03-24T01:15:47.705Z,1006.14
2019-03-24T01:16:41.417Z,1006.08
2019-03-24T01:17:41.421Z,1006.10
2019-03-24T01:18:41.428Z,1006.09
2019-03-24T01:19:41.433Z,1006.08
2019-03-24T01:20:41.438Z,1006.09
2019-03-24T01:21:41.696Z,1006.06
2019-03-24T01:22:41.447Z,1006.07
2019-03-24T01:23:41.452Z,1006.07
2019-03-24T01:24:41.456Z,1006.09
2019-03-24T01:25:41.462Z,1006.06
2019-03-24T01:26:41.469Z,1006.11
2019-03-24T01:27:41.472Z,1006.07
2019-03-24T01:28:41.478Z,1006.06
2019-03-24T01:29:41.482Z,1006.07
2019-03-24T01:30:41.490Z,1006.11
2019-03-24T01:31:41.494Z,1006.09
2019-03-24T01:32:41.498Z,1006.10
2019-03-24T01:33:41.503Z,1006.11
2019-03-24T01:34:41.509Z,1006.10
2019-03-24T01:35:41.514Z,1006.07
2019-03-24T01:36:41.517Z,1006.02
2019-03-24T01:37:41.525Z,1006.05
2019-03-24T01:38:41.529Z,1006.07
2019-03-24T01:39:41.533Z,1006.03
2019-03-24T01:40:41.539Z,1006.06
2019-03-24T01:41:41.544Z,1006.08
2019-03-24T01:42:41.549Z,1006.04
2019-03-24T01:43:41.553Z,1006.11
2019-03-24T01:44:41.580Z,1006.13
2019-03-24T01:45:41.677Z,1006.12
2019-03-24T01:46:41.570Z,1006.12
2019-03-24T01:47:41.573Z,1006.19
2019-03-24T01:48:41.578Z,1006.16
2019-03-24T01:49:41.585Z,1006.23
2019-03-24T01:50:41.591Z,1006.21
2019-03-24T01:51:41.595Z,1006.22
2019-03-24T01:52:41.599Z,1006.26
2019-03-24T01:53:41.603Z,1006.27
2019-03-24T01:54:41.610Z,1006.29
2019-03-24T01:55:41.612Z,1006.29
2019-03-24T01:56:41.619Z,1006.31
2019-03-24T01:57:41.623Z,1006.33
2019-03-24T01:58:41.631Z,1006.29
2019-03-24T01:59:41.635Z,1006.25
2019-03-24T02:00:41.639Z,1006.32
2019-03-24T02:01:41.645Z,1006.28
2019-03-24T02:02:41.650Z,1006.30
2019-03-24T02:03:41.653Z,1006.29
2019-03-24T02:04:41.659Z,1006.29
2019-03-24T02:05:41.663Z,1006.28
2019-03-24T02:06:41.668Z,1006.28
2019-03-24T02:07:41.674Z,1006.26
2019-03-24T02:08:41.679Z,1006.25
2019-03-24T02:09:41.685Z,1006.26
2019-03-24T02:10:41.691Z,1006.27
2019-03-24T02:11:41.698Z,1006.27
2019-03-24T02:12:41.698Z,1006.30
2019-03-24T02:13:41.703Z,1006.32
2019-03-24T02:14:41.711Z,1006.30
2019-03-24T02:15:41.720Z,1006.28
2019-03-24T02:16:41.720Z,1006.37
2019-03-24T02:17:41.725Z,1006.30
2019-03-24T02:18:41.732Z,1006.36
2019-03-24T02:19:41.733Z,1006.33
2019-03-24T02:20:41.748Z,1006.36
2019-03-24T02:21:41.744Z,1006.36
2019-03-24T02:22:41.750Z,1006.38
2019-03-24T02:23:41.753Z,1006.41
2019-03-24T02:24:41.758Z,1006.37
2019-03-24T02:25:41.763Z,1006.40
2019-03-24T02:26:41.770Z,1006.40
2019-03-24T02:27:41.774Z,1006.39
2019-03-24T02:28:41.780Z,1006.41
2019-03-24T02:29:41.783Z,1006.39
2019-03-24T02:30:41.797Z,1006.37
2019-03-24T02:31:41.796Z,1006.38
2019-03-24T02:32:41.800Z,1006.41
2019-03-24T02:33:41.809Z,1006.35
2019-03-24T02:34:41.809Z,1006.37
2019-03-24T02:35:41.814Z,1006.33
2019-03-24T02:36:41.820Z,1006.36
2019-03-24T02:37:41.828Z,1006.39
2019-03-24T02:38:41.831Z,1006.39
2019-03-24T02:39:41.836Z,1006.39
2019-03-24T02:40:41.838Z,1006.41
2019-03-24T02:41:41.851Z,1006.38
2019-03-24T02:42:41.864Z,1006.43
2019-03-24T02:43:41.853Z,1006.42
2019-03-24T02:44:41.868Z,1006.43
2019-03-24T02:45:41.866Z,1006.41
2019-03-24T02:46:41.878Z,1006.44
2019-03-24T02:47:41.875Z,1006.46
2019-03-24T02:48:41.881Z,1006.44
2019-03-24T02:49:41.886Z,1006.44
2019-03-24T02:50:41.891Z,1006.45
2019-03-24T02:51:41.903Z,1006.46
2019-03-24T02:52:41.900Z,1006.49
2019-03-24T02:53:41.906Z,1006.50
2019-03-24T02:54:41.917Z,1006.52
2019-03-24T02:55:41.960Z,1006.55
2019-03-24T02:56:41.925Z,1006.52
2019-03-24T02:57:41.927Z,1006.52
2019-03-24T02:58:41.931Z,1006.57
2019-03-24T02:59:41.934Z,1006.58
2019-03-24T03:00:41.940Z,1006.57
2019-03-24T03:01:41.953Z,1006.61
2019-03-24T03:02:41.988Z,1006.62
2019-03-24T03:03:41.967Z,1006.59
2019-03-24T03:04:41.958Z,1006.59
2019-03-24T03:05:41.965Z,1006.61
2019-03-24T03:06:41.969Z,1006.58
2019-03-24T03:07:41.975Z,1006.59
2019-03-24T03:08:41.983Z,1006.60
2019-03-24T03:09:41.984Z,1006.61
2019-03-24T03:10:42.000Z,1006.59
2019-03-24T03:11:42.000Z,1006.60
2019-03-24T03:12:42.002Z,1006.58
2019-03-24T03:13:42.020Z,1006.58
2019-03-24T03:14:42.010Z,1006.57
2019-03-24T03:15:42.016Z,1006.62
2019-03-24T03:16:42.020Z,1006.60
2019-03-24T03:17:42.028Z,1006.61
2019-03-24T03:18:42.041Z,1006.65
2019-03-24T03:19:42.041Z,1006.66
2019-03-24T03:20:42.059Z,1006.63
2019-03-24T03:21:42.085Z,1006.67
2019-03-24T03:22:42.050Z,1006.68
2019-03-24T03:23:42.055Z,1006.63
2019-03-24T03:24:42.059Z,1006.67
2019-03-24T03:25:42.065Z,1006.67
2019-03-24T03:26:42.075Z,1006.65
2019-03-24T03:27:42.074Z,1006.68
2019-03-24T03:28:42.082Z,1006.68
2019-03-24T03:29:42.085Z,1006.67
2019-03-24T03:30:42.092Z,1006.72
2019-03-24T03:31:42.145Z,1006.70
2019-03-24T03:32:42.102Z,1006.68
2019-03-24T03:33:42.113Z,1006.69
2019-03-24T03:34:42.123Z,1006.68
2019-03-24T03:35:42.135Z,1006.68
2019-03-24T03:36:42.120Z,1006.67
2019-03-24T03:37:42.126Z,1006.66
2019-03-24T03:38:42.131Z,1006.66
2019-03-24T03:39:42.135Z,1006.69
2019-03-24T03:40:42.144Z,1006.70
2019-03-24T03:41:42.147Z,1006.75
2019-03-24T03:42:42.150Z,1006.77
2019-03-24T03:43:42.156Z,1006.78
2019-03-24T03:44:42.161Z,1006.80
2019-03-24T03:45:42.226Z,1006.84
2019-03-24T03:46:52.647Z,1006.84
2019-03-24T03:47:42.174Z,1006.86
2019-03-24T03:48:42.185Z,1006.87
2019-03-24T03:49:42.184Z,1006.88
2019-03-24T03:50:42.194Z,1006.92
2019-03-24T03:51:42.196Z,1006.91
2019-03-24T03:52:42.199Z,1006.94
2019-03-24T03:53:42.217Z,1006.95
2019-03-24T03:54:42.209Z,1006.98
2019-03-24T03:55:42.214Z,1007.00
2019-03-24T03:56:42.225Z,1006.97
2019-03-24T03:57:42.225Z,1007.00
2019-03-24T03:58:42.241Z,1007.00
2019-03-24T03:59:42.272Z,1006.99
2019-03-24T04:00:42.243Z,1007.04
2019-03-24T04:01:42.243Z,1007.03
2019-03-24T04:02:42.253Z,1007.02
2019-03-24T04:03:42.257Z,1007.04
2019-03-24T04:04:42.259Z,1007.02
2019-03-24T04:05:42.265Z,1007.02
2019-03-24T04:06:42.270Z,1007.02
2019-03-24T04:07:42.274Z,1007.08
2019-03-24T04:08:42.279Z,1007.06
2019-03-24T04:09:42.285Z,1007.07
2019-03-24T04:10:42.291Z,1007.03
2019-03-24T04:11:42.294Z,1007.01
2019-03-24T04:12:42.300Z,1007.03
2019-03-24T04:13:42.306Z,1007.03
2019-03-24T04:14:42.312Z,1007.01
2019-03-24T04:15:42.314Z,1007.00
2019-03-24T04:16:42.319Z,1007.01
2019-03-24T04:17:42.325Z,1006.99
2019-03-24T04:18:42.334Z,1007.01
2019-03-24T04:19:42.333Z,1007.00
2019-03-24T04:20:42.338Z,1007.03
2019-03-24T04:21:42.344Z,1007.01
2019-03-24T04:22:42.355Z,1007.03
2019-03-24T04:23:42.354Z,1007.06
2019-03-24T04:24:42.370Z,1007.06
2019-03-24T04:25:42.363Z,1007.07
2019-03-24T04:26:42.368Z,1007.04
2019-03-24T04:27:42.377Z,1007.06
2019-03-24T04:28:42.378Z,1007.08
2019-03-24T04:29:42.383Z,1007.02
2019-03-24T04:30:42.390Z,1007.08
2019-03-24T04:31:42.392Z,1007.07
2019-03-24T04:32:42.406Z,1007.04
2019-03-24T04:33:42.403Z,1007.04
2019-03-24T04:34:42.457Z,1007.05
2019-03-24T04:35:42.419Z,1007.07
2019-03-24T04:36:42.417Z,1007.07
2019-03-24T04:37:42.428Z,1007.08
2019-03-24T04:38:42.427Z,1007.10
2019-03-24T04:39:42.432Z,1007.14
2019-03-24T04:40:42.439Z,1007.16
2019-03-24T04:41:42.441Z,1007.15
2019-03-24T04:42:42.448Z,1007.15
2019-03-24T04:43:42.453Z,1007.09
2019-03-24T04:44:42.457Z,1007.13
2019-03-24T04:45:42.462Z,1007.17
2019-03-24T04:46:42.466Z,1007.16
2019-03-24T04:47:42.473Z,1007.15
2019-03-24T04:48:42.475Z,1007.09
2019-03-24T04:49:42.483Z,1007.13
2019-03-24T04:50:42.491Z,1007.11
2019-03-24T04:51:42.497Z,1007.13
2019-03-24T04:52:42.496Z,1007.14
2019-03-24T04:53:42.503Z,1007.12
2019-03-24T04:54:42.507Z,1007.16
2019-03-24T04:55:42.511Z,1007.20
2019-03-24T04:56:42.516Z,1007.18
2019-03-24T04:57:42.522Z,1007.22
2019-03-24T04:58:42.526Z,1007.20
2019-03-24T04:59:42.530Z,1007.28
2019-03-24T05:00:42.536Z,1007.27
2019-03-24T05:01:42.540Z,1007.21
2019-03-24T05:02:42.547Z,1007.21
2019-03-24T05:03:42.549Z,1007.18
2019-03-24T05:04:42.556Z,1007.18
2019-03-24T05:05:42.564Z,1007.22
2019-03-24T05:06:42.572Z,1007.25
2019-03-24T05:07:42.571Z,1007.23
2019-03-24T05:08:42.575Z,1007.22
2019-03-24T05:09:42.584Z,1007.23
2019-03-24T05:10:42.587Z,1007.24
2019-03-24T05:11:42.592Z,1007.25
2019-03-24T05:12:42.594Z,1007.21
2019-03-24T05:13:42.600Z,1007.15
2019-03-24T05:14:42.609Z,1007.21
2019-03-24T05:15:42.610Z,1007.21
2019-03-24T05:16:42.619Z,1007.22
2019-03-24T05:17:42.622Z,1007.26
2019-03-24T05:18:42.624Z,1007.28
2019-03-24T05:19:42.631Z,1007.24
2019-03-24T05:20:42.635Z,1007.35
2019-03-24T05:21:42.642Z,1007.38
2019-03-24T05:22:42.645Z,1007.31
2019-03-24T05:23:42.649Z,1007.36
2019-03-24T05:24:42.655Z,1007.36
2019-03-24T05:25:42.660Z,1007.35
2019-03-24T05:26:42.666Z,1007.29
2019-03-24T05:27:42.669Z,1007.32
2019-03-24T05:28:42.674Z,1007.30
2019-03-24T05:29:42.679Z,1007.31
2019-03-24T05:30:42.686Z,1007.31
2019-03-24T05:31:42.701Z,1007.29
2019-03-24T05:32:42.696Z,1007.28
2019-03-24T05:33:42.699Z,1007.28
2019-03-24T05:34:42.708Z,1007.31
2019-03-24T05:35:42.719Z,1007.24
2019-03-24T05:36:42.713Z,1007.26
2019-03-24T05:37:42.719Z,1007.25
2019-03-24T05:38:42.724Z,1007.27
2019-03-24T05:39:42.728Z,1007.30
2019-03-24T05:40:42.734Z,1007.32
2019-03-24T05:41:42.740Z,1007.30
2019-03-24T05:42:42.743Z,1007.32
2019-03-24T05:43:42.748Z,1007.33
2019-03-24T05:44:42.753Z,1007.38
2019-03-24T05:45:42.759Z,1007.39
2019-03-24T05:46:42.762Z,1007.42
2019-03-24T05:47:42.768Z,1007.39
2019-03-24T05:48:42.775Z,1007.43
2019-03-24T05:49:42.777Z,1007.40
2019-03-24T05:50:42.783Z,1007.39
2019-03-24T05:51:42.787Z,1007.41
2019-03-24T05:52:42.793Z,1007.41
2019-03-24T05:53:42.798Z,1007.41
2019-03-24T05:54:42.803Z,1007.41
2019-03-24T05:55:42.810Z,1007.34
2019-03-24T05:56:42.811Z,1007.47
2019-03-24T05:57:42.817Z,1007.39
2019-03-24T05:58:42.822Z,1007.36
2019-03-24T05:59:42.826Z,1007.39
2019-03-24T06:00:42.833Z,1007.47
2019-03-24T06:01:42.837Z,1007.42
2019-03-24T06:02:42.844Z,1007.43
2019-03-24T06:03:42.847Z,1007.48
2019-03-24T06:04:42.853Z,1007.43
2019-03-24T06:05:42.857Z,1007.55
2019-03-24T06:06:42.861Z,1007.49
2019-03-24T06:07:42.865Z,1007.52
2019-03-24T06:08:42.872Z,1007.53
2019-03-24T06:09:42.876Z,1007.52
2019-03-24T06:10:42.884Z,1007.56
2019-03-24T06:11:42.886Z,1007.53
2019-03-24T06:12:42.891Z,1007.60
2019-03-24T06:13:42.895Z,1007.62
2019-03-24T06:14:42.901Z,1007.57
2019-03-24T06:15:42.907Z,1007.60
2019-03-24T06:16:42.913Z,1007.61
2019-03-24T06:17:47.862Z,1007.59
2019-03-24T06:18:42.921Z,1007.60
2019-03-24T06:19:42.942Z,1007.56
2019-03-24T06:20:42.930Z,1007.65
2019-03-24T06:21:42.936Z,1007.59
2019-03-24T06:22:42.942Z,1007.62
2019-03-24T06:23:42.946Z,1007.59
2019-03-24T06:24:42.949Z,1007.59
2019-03-24T06:25:42.957Z,1007.61
2019-03-24T06:26:43.132Z,1007.66
2019-03-24T06:27:42.966Z,1007.71
2019-03-24T06:28:42.971Z,1007.68
2019-03-24T06:29:42.976Z,1007.70
2019-03-24T06:30:42.980Z,1007.77
2019-03-24T06:31:42.986Z,1007.71
2019-03-24T06:32:42.990Z,1007.72
2019-03-24T06:33:42.995Z,1007.71
2019-03-24T06:34:42.999Z,1007.76
2019-03-24T06:35:43.003Z,1007.72
2019-03-24T06:36:43.009Z,1007.69
2019-03-24T06:37:43.015Z,1007.73
2019-03-24T06:38:43.027Z,1007.75
2019-03-24T06:39:43.025Z,1007.78
2019-03-24T06:40:43.143Z,1007.77
2019-03-24T06:41:43.034Z,1007.81
2019-03-24T06:42:43.040Z,1007.84
2019-03-24T06:43:43.045Z,1007.82
2019-03-24T06:44:43.049Z,1007.82
2019-03-24T06:45:43.056Z,1007.82
2019-03-24T06:46:43.061Z,1007.81
2019-03-24T06:47:43.064Z,1007.74
2019-03-24T06:48:43.070Z,1007.92
2019-03-24T06:49:43.074Z,1007.79
2019-03-24T06:50:43.081Z,1007.77
2019-03-24T06:51:43.087Z,1007.87
2019-03-24T06:52:43.088Z,1007.79
2019-03-24T06:53:43.095Z,1007.88
2019-03-24T06:54:43.100Z,1007.79
2019-03-24T06:55:43.103Z,1007.83
2019-03-24T06:56:43.109Z,1007.77
2019-03-24T06:57:43.116Z,1007.84
2019-03-24T06:58:43.120Z,1007.80
2019-03-24T06:59:43.122Z,1007.81
2019-03-24T07:00:43.129Z,1007.84
2019-03-24T07:01:43.136Z,1007.80
2019-03-24T07:02:43.139Z,1007.80
2019-03-24T07:03:43.143Z,1007.87
2019-03-24T07:04:43.151Z,1007.71
2019-03-24T07:05:43.154Z,1007.83
2019-03-24T07:06:43.161Z,1007.84
2019-03-24T07:07:43.163Z,1007.87
2019-03-24T07:08:43.171Z,1007.79
2019-03-24T07:09:43.175Z,1007.82
2019-03-24T07:10:43.179Z,1007.83
2019-03-24T07:11:43.183Z,1007.79
2019-03-24T07:12:43.190Z,1007.79
2019-03-24T07:13:43.195Z,1007.82
2019-03-24T07:14:43.199Z,1007.88
2019-03-24T07:15:43.206Z,1007.90
2019-03-24T07:16:43.210Z,1007.91
2019-03-24T07:17:43.216Z,1007.87
2019-03-24T07:18:43.220Z,1007.84
2019-03-24T07:19:43.225Z,1007.87
2019-03-24T07:20:43.229Z,1007.85
2019-03-24T07:21:43.234Z,1007.85
2019-03-24T07:22:43.241Z,1007.93
2019-03-24T07:23:43.244Z,1007.85
2019-03-24T07:24:43.251Z,1008.00
2019-03-24T07:25:43.255Z,1007.91
2019-03-24T07:26:43.260Z,1007.93
2019-03-24T07:27:43.267Z,1007.98
2019-03-24T07:28:43.275Z,1007.99
2019-03-24T07:29:43.277Z,1007.99
2019-03-24T07:30:43.279Z,1008.02
2019-03-24T07:31:43.286Z,1007.99
2019-03-24T07:32:43.290Z,1008.05
2019-03-24T07:33:43.296Z,1007.95
2019-03-24T07:34:43.302Z,1008.04
2019-03-24T07:35:43.306Z,1008.02
2019-03-24T07:36:43.310Z,1008.02
2019-03-24T07:37:43.316Z,1008.03
2019-03-24T07:38:43.320Z,1007.99
2019-03-24T07:39:43.324Z,1007.97
2019-03-24T07:40:43.330Z,1007.96
2019-03-24T07:41:43.374Z,1007.94
2019-03-24T07:42:43.340Z,1007.92
2019-03-24T07:43:43.347Z,1007.97
2019-03-24T07:44:43.352Z,1007.97
2019-03-24T07:45:43.357Z,1007.94
2019-03-24T07:46:43.364Z,1007.89
2019-03-24T07:47:43.367Z,1007.99
2019-03-24T07:48:43.372Z,1007.99
2019-03-24T07:49:43.380Z,1007.89
2019-03-24T07:50:43.382Z,1007.97
2019-03-24T07:51:43.387Z,1007.89
2019-03-24T07:52:43.394Z,1007.97
2019-03-24T07:53:43.399Z,1007.87
2019-03-24T07:54:43.403Z,1007.91
2019-03-24T07:55:43.411Z,1007.91
2019-03-24T07:56:43.412Z,1007.88
2019-03-24T07:57:43.417Z,1007.84
2019-03-24T07:58:45.791Z,1007.89
2019-03-24T07:59:43.428Z,1007.81
2019-03-24T08:00:43.434Z,1007.89
2019-03-24T08:01:43.439Z,1007.96
2019-03-24T08:02:50.834Z,1007.89
2019-03-24T08:03:43.451Z,1007.84
2019-03-24T08:04:43.461Z,1007.89
2019-03-24T08:05:43.461Z,1007.85
2019-03-24T08:06:43.466Z,1007.93
2019-03-24T08:07:43.470Z,1007.82
2019-03-24T08:08:44.384Z,1007.87
2019-03-24T08:09:43.493Z,1007.88
2019-03-24T08:10:43.485Z,1007.89
2019-03-24T08:11:43.492Z,1007.87
2019-03-24T08:12:43.546Z,1007.80
2019-03-24T08:13:53.156Z,1007.78
2019-03-24T08:14:43.505Z,1007.76
2019-03-24T08:15:43.511Z,1007.82
2019-03-24T08:16:43.517Z,1007.99
2019-03-24T08:17:43.524Z,1007.84
2019-03-24T08:18:43.529Z,1007.85
2019-03-24T08:19:43.530Z,1007.81
2019-03-24T08:20:43.538Z,1007.99
2019-03-24T08:21:43.543Z,1007.79
2019-03-24T08:22:43.547Z,1007.78
2019-03-24T08:23:43.553Z,1007.82
2019-03-24T08:24:43.562Z,1007.88
2019-03-24T08:25:43.563Z,1007.87
2019-03-24T08:26:43.569Z,1007.91
2019-03-24T08:27:43.574Z,1007.88
2019-03-24T08:28:43.580Z,1007.92
2019-03-24T08:29:43.585Z,1007.89
2019-03-24T08:30:43.590Z,1007.94
2019-03-24T08:31:43.595Z,1007.88
2019-03-24T08:32:43.599Z,1007.88
2019-03-24T08:33:43.606Z,1007.88
2019-03-24T08:34:43.610Z,1007.96
2019-03-24T08:35:43.620Z,1007.85
2019-03-24T08:36:43.620Z,1007.87
2019-03-24T08:37:43.626Z,1007.93
2019-03-24T08:38:43.680Z,1007.95
2019-03-24T08:39:43.635Z,1007.89
2019-03-24T08:40:43.644Z,1007.92
2019-03-24T08:41:43.646Z,1007.91
2019-03-24T08:42:43.652Z,1007.82
2019-03-24T08:43:43.657Z,1007.98
2019-03-24T08:44:43.664Z,1007.97
2019-03-24T08:45:43.670Z,1007.87
2019-03-24T08:46:46.879Z,1007.86
2019-03-24T08:47:43.693Z,1007.81
2019-03-24T08:48:43.684Z,1007.86
2019-03-24T08:49:43.691Z,1007.89
2019-03-24T08:50:43.704Z,1007.83
2019-03-24T08:51:43.700Z,1007.79
2019-03-24T08:52:43.703Z,1007.80
2019-03-24T08:53:43.711Z,1007.84
2019-03-24T08:54:43.718Z,1007.82
2019-03-24T08:55:43.728Z,1007.76
2019-03-24T08:56:43.733Z,1007.70
2019-03-24T08:57:43.732Z,1007.76
2019-03-24T08:58:43.736Z,1007.73
2019-03-24T08:59:43.742Z,1007.74
2019-03-24T09:00:43.746Z,1007.82
2019-03-24T09:01:43.753Z,1007.70
2019-03-24T09:02:43.760Z,1007.70
2019-03-24T09:03:43.780Z,1007.59
2019-03-24T09:04:43.780Z,1007.70
2019-03-24T09:05:43.776Z,1007.61
2019-03-24T09:06:43.779Z,1007.64
2019-03-24T09:07:43.794Z,1007.66
2019-03-24T09:08:43.789Z,1007.68
2019-03-24T09:09:43.794Z,1007.62
2019-03-24T09:10:43.800Z,1007.75
2019-03-24T09:11:43.806Z,1007.72
2019-03-24T09:12:43.811Z,1007.67
2019-03-24T09:13:43.815Z,1007.66
2019-03-24T09:14:43.822Z,1007.70
2019-03-24T09:15:43.828Z,1007.71
2019-03-24T09:16:43.832Z,1007.79
2019-03-24T09:17:43.950Z,1007.76
2019-03-24T09:18:52.154Z,1007.74
2019-03-24T09:19:43.852Z,1007.66
2019-03-24T09:20:43.853Z,1007.72
2019-03-24T09:21:43.860Z,1007.77
2019-03-24T09:22:43.863Z,1007.66
2019-03-24T09:23:43.871Z,1007.62
2019-03-24T09:24:43.874Z,1007.79
2019-03-24T09:25:43.882Z,1007.80
2019-03-24T09:26:43.889Z,1007.73
2019-03-24T09:27:43.892Z,1007.79
2019-03-24T09:28:43.897Z,1007.76
2019-03-24T09:29:43.903Z,1007.76
2019-03-24T09:30:43.908Z,1007.68
2019-03-24T09:31:43.995Z,1007.71
2019-03-24T09:32:43.918Z,1007.76
2019-03-24T09:33:43.925Z,1007.75
2019-03-24T09:34:43.931Z,1007.72
2019-03-24T09:35:43.935Z,1007.65
2019-03-24T09:36:43.940Z,1007.69
2019-03-24T09:37:43.947Z,1007.77
2019-03-24T09:38:43.953Z,1007.72
2019-03-24T09:39:43.958Z,1007.70
2019-03-24T09:40:43.961Z,1007.68
2019-03-24T09:41:43.969Z,1007.70
2019-03-24T09:42:43.974Z,1007.72
2019-03-24T09:43:43.994Z,1007.68
2019-03-24T09:44:43.984Z,1007.80
2019-03-24T09:45:43.990Z,1007.74
2019-03-24T09:46:43.995Z,1007.58
2019-03-24T09:47:44.001Z,1007.60
2019-03-24T09:48:44.006Z,1007.60
2019-03-24T09:49:44.010Z,1007.59
2019-03-24T09:50:44.016Z,1007.69
2019-03-24T09:51:44.022Z,1007.50
2019-03-24T09:52:44.027Z,1007.50
2019-03-24T09:53:44.034Z,1007.56
2019-03-24T09:54:44.040Z,1007.58
2019-03-24T09:55:44.048Z,1007.55
2019-03-24T09:56:44.050Z,1007.48
2019-03-24T09:57:44.055Z,1007.46
2019-03-24T09:58:44.062Z,1007.49
2019-03-24T09:59:44.067Z,1007.58
2019-03-24T10:00:44.073Z,1007.63
2019-03-24T10:01:44.077Z,1007.61
2019-03-24T10:02:44.083Z,1007.55
2019-03-24T10:03:44.089Z,1007.71
2019-03-24T10:04:44.095Z,1007.53
2019-03-24T10:05:44.117Z,1007.51
2019-03-24T10:06:44.110Z,1007.54
2019-03-24T10:07:44.176Z,1007.51
2019-03-24T10:08:47.223Z,1007.52
2019-03-24T10:09:44.123Z,1007.62
2019-03-24T10:10:44.129Z,1007.58
2019-03-24T10:11:44.134Z,1007.59
2019-03-24T10:12:44.140Z,1007.46
2019-03-24T10:13:44.147Z,1007.57
2019-03-24T10:14:44.203Z,1007.57
2019-03-24T10:15:44.157Z,1007.53
2019-03-24T10:16:44.164Z,1007.52
2019-03-24T10:17:44.167Z,1007.59
2019-03-24T10:18:44.175Z,1007.54
2019-03-24T10:19:44.181Z,1007.49
2019-03-24T10:20:44.186Z,1007.52
2019-03-24T10:21:44.191Z,1007.54
2019-03-24T10:22:44.199Z,1007.53
2019-03-24T10:23:44.203Z,1007.52
2019-03-24T10:24:44.215Z,1007.51
2019-03-24T10:25:44.216Z,1007.42
2019-03-24T10:26:44.222Z,1007.50
2019-03-24T10:27:44.226Z,1007.42
2019-03-24T10:28:44.234Z,1007.48
2019-03-24T10:29:44.243Z,1007.47
2019-03-24T10:30:44.245Z,1007.49
2019-03-24T10:31:44.250Z,1007.42
2019-03-24T10:32:44.256Z,1007.47
2019-03-24T10:33:44.262Z,1007.39
2019-03-24T10:34:44.268Z,1007.52
2019-03-24T10:35:44.275Z,1007.48
2019-03-24T10:36:44.279Z,1007.54
2019-03-24T10:37:44.286Z,1007.51
2019-03-24T10:38:44.293Z,1007.53
2019-03-24T10:39:44.306Z,1007.53
2019-03-24T10:40:44.303Z,1007.58
2019-03-24T10:41:44.311Z,1007.54
2019-03-24T10:42:44.317Z,1007.52
2019-03-24T10:43:44.326Z,1007.52
2019-03-24T10:44:44.330Z,1007.53
2019-03-24T10:45:44.333Z,1007.52
2019-03-24T10:46:44.339Z,1007.48
2019-03-24T10:47:44.344Z,1007.53
2019-03-24T10:48:44.350Z,1007.52
2019-03-24T10:49:44.356Z,1007.49
2019-03-24T10:50:44.362Z,1007.53
2019-03-24T10:51:44.369Z,1007.47
2019-03-24T10:52:44.374Z,1007.49
2019-03-24T10:53:44.380Z,1007.52
2019-03-24T10:54:44.390Z,1007.43
2019-03-24T10:55:44.392Z,1007.37
2019-03-24T10:56:44.400Z,1007.52
2019-03-24T10:57:44.403Z,1007.37
2019-03-24T10:58:44.411Z,1007.51
2019-03-24T10:59:44.416Z,1007.43
2019-03-24T11:00:44.423Z,1007.43
2019-03-24T11:01:44.429Z,1007.44
2019-03-24T11:02:44.433Z,1007.46
2019-03-24T11:03:44.441Z,1007.44
2019-03-24T11:04:44.446Z,1007.38
2019-03-24T11:05:44.454Z,1007.45
2019-03-24T11:06:44.458Z,1007.46
2019-03-24T11:07:44.464Z,1007.43
2019-03-24T11:08:44.472Z,1007.38
2019-03-24T11:09:45.173Z,1007.41
2019-03-24T11:10:44.481Z,1007.35
2019-03-24T11:11:44.492Z,1007.40
2019-03-24T11:12:44.494Z,1007.48
2019-03-24T11:13:44.504Z,1007.45
2019-03-24T11:14:44.509Z,1007.34
2019-03-24T11:15:44.819Z,1007.47
2019-03-24T11:16:44.519Z,1007.46
2019-03-24T11:17:44.526Z,1007.44
2019-03-24T11:18:44.533Z,1007.51
2019-03-24T11:19:44.537Z,1007.48
2019-03-24T11:20:44.543Z,1007.47
2019-03-24T11:21:44.550Z,1007.49
2019-03-24T11:22:44.556Z,1007.53
2019-03-24T11:23:44.563Z,1007.58
2019-03-24T11:24:44.570Z,1007.50
2019-03-24T11:25:44.575Z,1007.55
2019-03-24T11:26:44.581Z,1007.56
2019-03-24T11:27:44.586Z,1007.58
2019-03-24T11:28:44.594Z,1007.61
2019-03-24T11:29:44.601Z,1007.55
2019-03-24T11:30:44.606Z,1007.62
2019-03-24T11:31:44.612Z,1007.64
2019-03-24T11:32:44.621Z,1007.66
2019-03-24T11:33:44.626Z,1007.50
2019-03-24T11:34:44.632Z,1007.64
2019-03-24T11:35:44.638Z,1007.64
2019-03-24T11:36:44.644Z,1007.60
2019-03-24T11:37:44.652Z,1007.61
2019-03-24T11:38:44.660Z,1007.49
2019-03-24T11:39:44.664Z,1007.65
2019-03-24T11:40:44.670Z,1007.40
2019-03-24T11:41:44.686Z,1007.53
2019-03-24T11:42:44.685Z,1007.56
2019-03-24T11:43:44.690Z,1007.42
2019-03-24T11:44:44.697Z,1007.62
2019-03-24T11:45:44.703Z,1007.47
2019-03-24T11:46:44.715Z,1007.42
2019-03-24T11:47:44.715Z,1007.48
2019-03-24T11:48:44.722Z,1007.59
2019-03-24T11:49:46.221Z,1007.47
2019-03-24T11:50:44.736Z,1007.43
2019-03-24T11:51:44.742Z,1007.36
2019-03-24T11:52:44.748Z,1007.29
2019-03-24T11:53:44.756Z,1007.47
2019-03-24T11:54:44.764Z,1007.32
2019-03-24T11:55:44.769Z,1007.39
2019-03-24T11:56:44.775Z,1007.35
2019-03-24T11:57:44.780Z,1007.31
2019-03-24T11:58:44.883Z,1007.32
2019-03-24T11:59:44.795Z,1007.31
2019-03-24T12:00:44.803Z,1007.41
2019-03-24T12:01:44.808Z,1007.39
2019-03-24T12:02:44.814Z,1007.33
2019-03-24T12:03:44.819Z,1007.40
2019-03-24T12:04:44.827Z,1007.32
2019-03-24T12:05:44.832Z,1007.39